sensor_id;sensor_type;location;lat;lon;timestamp;P1;durP1;ratioP1;P2;durP2;ratioP2
71503;SDS011;59323;50.874;7.028;2023-03-03T00:02:12;25.90;;;10.43;;
71503;SDS011;59323;50.874;7.028;2023-03-03T00:04:37;28.77;;;10.63;;
71503;SDS011;59323;50.874;7.028;2023-03-03T00:07:03;27.88;;;11.15;;
71503;SDS011;59323;50.874;7.028;2023-03-03T00:09:29;27.10;;;10.17;;
71503;SDS011;59323;50.874;7.028;2023-03-03T00:11:55;27.20;;;11.03;;
71503;SDS011;59323;50.874;7.028;2023-03-03T00:14:25;26.10;;;10.40;;
71503;SDS011;59323;50.874;7.028;2023-03-03T00:16:54;29.65;;;11.32;;
71503;SDS011;59323;50.874;7.028;2023-03-03T00:19:20;37.92;;;13.63;;
71503;SDS011;59323;50.874;7.028;2023-03-03T00:21:50;33.25;;;13.05;;
71503;SDS011;59323;50.874;7.028;2023-03-03T00:24:43;36.20;;;13.67;;
71503;SDS011;59323;50.874;7.028;2023-03-03T00:27:15;34.80;;;13.50;;
71503;SDS011;59323;50.874;7.028;2023-03-03T00:29:47;33.35;;;12.48;;
71503;SDS011;59323;50.874;7.028;2023-03-03T00:32:20;34.63;;;13.68;;
71503;SDS011;59323;50.874;7.028;2023-03-03T00:35:22;38.03;;;13.95;;
71503;SDS011;59323;50.874;7.028;2023-03-03T00:38:13;31.20;;;12.17;;
71503;SDS011;59323;50.874;7.028;2023-03-03T00:40:43;36.08;;;12.93;;
71503;SDS011;59323;50.874;7.028;2023-03-03T00:45:56;35.42;;;13.82;;
71503;SDS011;59323;50.874;7.028;2023-03-03T00:50:58;32.93;;;12.63;;
71503;SDS011;59323;50.874;7.028;2023-03-03T00:53:26;31.58;;;13.10;;
71503;SDS011;59323;50.874;7.028;2023-03-03T00:55:53;33.28;;;12.75;;
71503;SDS011;59323;50.874;7.028;2023-03-03T00:58:20;30.45;;;11.98;;
71503;SDS011;59323;50.874;7.028;2023-03-03T01:00:53;33.30;;;12.77;;
71503;SDS011;59323;50.874;7.028;2023-03-03T01:03:21;35.83;;;12.37;;
71503;SDS011;59323;50.874;7.028;2023-03-03T01:05:49;32.50;;;12.70;;
71503;SDS011;59323;50.874;7.028;2023-03-03T01:08:15;33.92;;;13.13;;
71503;SDS011;59323;50.874;7.028;2023-03-03T01:10:45;35.00;;;13.00;;
71503;SDS011;59323;50.874;7.028;2023-03-03T01:13:15;33.40;;;12.27;;
71503;SDS011;59323;50.874;7.028;2023-03-03T01:15:41;33.90;;;12.80;;
71503;SDS011;59323;50.874;7.028;2023-03-03T01:18:10;34.22;;;13.23;;
71503;SDS011;59323;50.874;7.028;2023-03-03T01:20:36;32.97;;;12.88;;
71503;SDS011;59323;50.874;7.028;2023-03-03T01:23:02;34.23;;;12.77;;
71503;SDS011;59323;50.874;7.028;2023-03-03T01:25:28;37.53;;;12.87;;
71503;SDS011;59323;50.874;7.028;2023-03-03T01:27:53;32.70;;;13.93;;
71503;SDS011;59323;50.874;7.028;2023-03-03T01:30:18;31.97;;;13.07;;
71503;SDS011;59323;50.874;7.028;2023-03-03T01:32:44;36.17;;;13.52;;
71503;SDS011;59323;50.874;7.028;2023-03-03T01:35:09;33.53;;;13.73;;
71503;SDS011;59323;50.874;7.028;2023-03-03T01:37:35;37.22;;;15.00;;
71503;SDS011;59323;50.874;7.028;2023-03-03T01:40:02;37.42;;;14.70;;
71503;SDS011;59323;50.874;7.028;2023-03-03T01:42:29;40.03;;;14.93;;
71503;SDS011;59323;50.874;7.028;2023-03-03T01:45:16;41.08;;;14.05;;
71503;SDS011;59323;50.874;7.028;2023-03-03T01:47:51;37.92;;;15.23;;
71503;SDS011;59323;50.874;7.028;2023-03-03T01:50:40;39.67;;;15.57;;
71503;SDS011;59323;50.874;7.028;2023-03-03T01:53:20;38.63;;;14.73;;
71503;SDS011;59323;50.874;7.028;2023-03-03T01:55:52;41.63;;;15.73;;
71503;SDS011;59323;50.874;7.028;2023-03-03T01:58:22;37.80;;;15.05;;
71503;SDS011;59323;50.874;7.028;2023-03-03T02:00:54;44.53;;;14.93;;
71503;SDS011;59323;50.874;7.028;2023-03-03T02:03:23;42.03;;;15.70;;
71503;SDS011;59323;50.874;7.028;2023-03-03T02:05:49;44.03;;;16.40;;
71503;SDS011;59323;50.874;7.028;2023-03-03T02:08:19;42.90;;;15.52;;
71503;SDS011;59323;50.874;7.028;2023-03-03T02:10:51;42.13;;;15.88;;
71503;SDS011;59323;50.874;7.028;2023-03-03T02:13:17;43.17;;;17.50;;
71503;SDS011;59323;50.874;7.028;2023-03-03T02:15:42;46.00;;;16.55;;
71503;SDS011;59323;50.874;7.028;2023-03-03T02:18:08;48.87;;;17.50;;
71503;SDS011;59323;50.874;7.028;2023-03-03T02:23:31;43.60;;;17.63;;
71503;SDS011;59323;50.874;7.028;2023-03-03T02:26:24;43.92;;;15.93;;
71503;SDS011;59323;50.874;7.028;2023-03-03T02:28:51;44.25;;;15.98;;
71503;SDS011;59323;50.874;7.028;2023-03-03T02:31:18;48.00;;;17.60;;
71503;SDS011;59323;50.874;7.028;2023-03-03T02:33:46;49.13;;;17.23;;
71503;SDS011;59323;50.874;7.028;2023-03-03T02:36:14;48.17;;;16.95;;
71503;SDS011;59323;50.874;7.028;2023-03-03T02:38:45;44.88;;;16.85;;
71503;SDS011;59323;50.874;7.028;2023-03-03T02:44:00;46.40;;;16.30;;
71503;SDS011;59323;50.874;7.028;2023-03-03T02:46:26;40.80;;;16.40;;
71503;SDS011;59323;50.874;7.028;2023-03-03T02:48:52;51.17;;;18.00;;
71503;SDS011;59323;50.874;7.028;2023-03-03T02:51:18;49.73;;;17.57;;
71503;SDS011;59323;50.874;7.028;2023-03-03T02:53:44;48.22;;;17.98;;
71503;SDS011;59323;50.874;7.028;2023-03-03T02:56:09;46.43;;;17.33;;
71503;SDS011;59323;50.874;7.028;2023-03-03T02:58:35;47.70;;;17.37;;
71503;SDS011;59323;50.874;7.028;2023-03-03T03:01:01;46.30;;;16.73;;
71503;SDS011;59323;50.874;7.028;2023-03-03T03:03:27;45.35;;;16.02;;
71503;SDS011;59323;50.874;7.028;2023-03-03T03:05:53;46.20;;;15.80;;
71503;SDS011;59323;50.874;7.028;2023-03-03T03:08:18;45.73;;;16.93;;
71503;SDS011;59323;50.874;7.028;2023-03-03T03:10:43;48.78;;;16.83;;
71503;SDS011;59323;50.874;7.028;2023-03-03T03:13:09;45.67;;;15.97;;
71503;SDS011;59323;50.874;7.028;2023-03-03T03:15:38;41.77;;;16.37;;
71503;SDS011;59323;50.874;7.028;2023-03-03T03:18:03;44.80;;;16.38;;
71503;SDS011;59323;50.874;7.028;2023-03-03T03:20:29;48.67;;;16.47;;
71503;SDS011;59323;50.874;7.028;2023-03-03T03:22:54;47.53;;;16.33;;
71503;SDS011;59323;50.874;7.028;2023-03-03T03:25:20;49.28;;;16.63;;
71503;SDS011;59323;50.874;7.028;2023-03-03T03:27:45;45.33;;;15.90;;
71503;SDS011;59323;50.874;7.028;2023-03-03T03:30:16;43.58;;;15.82;;
71503;SDS011;59323;50.874;7.028;2023-03-03T03:32:44;43.60;;;16.87;;
71503;SDS011;59323;50.874;7.028;2023-03-03T03:35:10;50.88;;;16.45;;
71503;SDS011;59323;50.874;7.028;2023-03-03T03:37:35;43.17;;;15.60;;
71503;SDS011;59323;50.874;7.028;2023-03-03T03:40:01;48.07;;;16.67;;
71503;SDS011;59323;50.874;7.028;2023-03-03T03:42:26;48.23;;;17.30;;
71503;SDS011;59323;50.874;7.028;2023-03-03T03:44:52;42.37;;;14.80;;
71503;SDS011;59323;50.874;7.028;2023-03-03T03:47:17;41.83;;;14.80;;
71503;SDS011;59323;50.874;7.028;2023-03-03T03:49:42;39.37;;;14.67;;
71503;SDS011;59323;50.874;7.028;2023-03-03T03:52:08;45.22;;;15.55;;
71503;SDS011;59323;50.874;7.028;2023-03-03T03:54:33;38.40;;;14.07;;
71503;SDS011;59323;50.874;7.028;2023-03-03T03:56:58;42.60;;;16.20;;
71503;SDS011;59323;50.874;7.028;2023-03-03T03:59:24;39.50;;;13.83;;
71503;SDS011;59323;50.874;7.028;2023-03-03T04:01:49;42.15;;;15.23;;
71503;SDS011;59323;50.874;7.028;2023-03-03T04:04:15;42.57;;;15.23;;
71503;SDS011;59323;50.874;7.028;2023-03-03T04:06:41;42.83;;;15.95;;
71503;SDS011;59323;50.874;7.028;2023-03-03T04:09:06;43.60;;;14.33;;
71503;SDS011;59323;50.874;7.028;2023-03-03T04:11:31;43.93;;;15.80;;
71503;SDS011;59323;50.874;7.028;2023-03-03T04:13:57;40.37;;;13.97;;
71503;SDS011;59323;50.874;7.028;2023-03-03T04:16:22;41.07;;;14.20;;
71503;SDS011;59323;50.874;7.028;2023-03-03T04:18:48;37.85;;;14.82;;
71503;SDS011;59323;50.874;7.028;2023-03-03T04:21:13;44.60;;;15.83;;
71503;SDS011;59323;50.874;7.028;2023-03-03T04:23:39;42.83;;;15.13;;
71503;SDS011;59323;50.874;7.028;2023-03-03T04:26:05;38.43;;;14.83;;
71503;SDS011;59323;50.874;7.028;2023-03-03T04:28:30;42.20;;;13.90;;
71503;SDS011;59323;50.874;7.028;2023-03-03T04:30:56;41.40;;;14.50;;
71503;SDS011;59323;50.874;7.028;2023-03-03T04:33:21;45.47;;;13.97;;
71503;SDS011;59323;50.874;7.028;2023-03-03T04:35:47;38.17;;;14.00;;
71503;SDS011;59323;50.874;7.028;2023-03-03T04:38:12;42.17;;;14.67;;
71503;SDS011;59323;50.874;7.028;2023-03-03T04:40:39;43.43;;;14.73;;
71503;SDS011;59323;50.874;7.028;2023-03-03T04:43:05;40.93;;;13.63;;
71503;SDS011;59323;50.874;7.028;2023-03-03T04:45:31;42.78;;;14.57;;
71503;SDS011;59323;50.874;7.028;2023-03-03T04:47:56;41.50;;;14.67;;
71503;SDS011;59323;50.874;7.028;2023-03-03T04:50:22;36.63;;;13.27;;
71503;SDS011;59323;50.874;7.028;2023-03-03T04:52:47;37.97;;;13.40;;
71503;SDS011;59323;50.874;7.028;2023-03-03T04:55:12;39.63;;;14.27;;
71503;SDS011;59323;50.874;7.028;2023-03-03T04:57:38;41.33;;;13.90;;
71503;SDS011;59323;50.874;7.028;2023-03-03T05:00:03;42.03;;;14.10;;
71503;SDS011;59323;50.874;7.028;2023-03-03T05:02:30;38.10;;;14.27;;
71503;SDS011;59323;50.874;7.028;2023-03-03T05:04:56;38.00;;;13.97;;
71503;SDS011;59323;50.874;7.028;2023-03-03T05:07:21;41.10;;;14.53;;
71503;SDS011;59323;50.874;7.028;2023-03-03T05:09:46;48.90;;;16.20;;
71503;SDS011;59323;50.874;7.028;2023-03-03T05:12:12;40.38;;;14.18;;
71503;SDS011;59323;50.874;7.028;2023-03-03T05:14:37;42.97;;;13.67;;
71503;SDS011;59323;50.874;7.028;2023-03-03T05:17:03;39.50;;;14.37;;
71503;SDS011;59323;50.874;7.028;2023-03-03T05:19:30;41.65;;;14.35;;
71503;SDS011;59323;50.874;7.028;2023-03-03T05:21:59;43.83;;;14.43;;
71503;SDS011;59323;50.874;7.028;2023-03-03T05:24:24;45.53;;;15.50;;
71503;SDS011;59323;50.874;7.028;2023-03-03T05:26:49;37.57;;;13.17;;
71503;SDS011;59323;50.874;7.028;2023-03-03T05:29:15;40.65;;;13.70;;
71503;SDS011;59323;50.874;7.028;2023-03-03T05:31:40;44.47;;;13.63;;
71503;SDS011;59323;50.874;7.028;2023-03-03T05:34:06;38.33;;;14.03;;
71503;SDS011;59323;50.874;7.028;2023-03-03T05:36:31;39.00;;;13.47;;
71503;SDS011;59323;50.874;7.028;2023-03-03T05:38:56;39.13;;;13.40;;
71503;SDS011;59323;50.874;7.028;2023-03-03T05:41:22;39.53;;;14.33;;
71503;SDS011;59323;50.874;7.028;2023-03-03T05:43:47;37.77;;;13.33;;
71503;SDS011;59323;50.874;7.028;2023-03-03T05:46:12;38.30;;;13.13;;
71503;SDS011;59323;50.874;7.028;2023-03-03T05:48:38;35.80;;;13.07;;
71503;SDS011;59323;50.874;7.028;2023-03-03T05:51:03;41.20;;;14.53;;
71503;SDS011;59323;50.874;7.028;2023-03-03T05:53:29;34.40;;;12.75;;
71503;SDS011;59323;50.874;7.028;2023-03-03T05:55:54;37.30;;;13.57;;
71503;SDS011;59323;50.874;7.028;2023-03-03T05:58:20;34.87;;;11.83;;
71503;SDS011;59323;50.874;7.028;2023-03-03T06:00:48;39.97;;;13.50;;
71503;SDS011;59323;50.874;7.028;2023-03-03T06:03:14;36.30;;;12.47;;
71503;SDS011;59323;50.874;7.028;2023-03-03T06:05:39;38.85;;;12.57;;
71503;SDS011;59323;50.874;7.028;2023-03-03T06:08:05;33.50;;;12.80;;
71503;SDS011;59323;50.874;7.028;2023-03-03T06:10:30;32.70;;;12.03;;
71503;SDS011;59323;50.874;7.028;2023-03-03T06:12:55;31.90;;;12.57;;
71503;SDS011;59323;50.874;7.028;2023-03-03T06:15:22;33.88;;;11.15;;
71503;SDS011;59323;50.874;7.028;2023-03-03T06:17:48;33.72;;;11.65;;
71503;SDS011;59323;50.874;7.028;2023-03-03T06:20:13;34.23;;;10.83;;
71503;SDS011;59323;50.874;7.028;2023-03-03T06:22:39;32.27;;;11.57;;
71503;SDS011;59323;50.874;7.028;2023-03-03T06:25:04;33.58;;;11.93;;
71503;SDS011;59323;50.874;7.028;2023-03-03T06:27:30;36.53;;;12.10;;
71503;SDS011;59323;50.874;7.028;2023-03-03T06:29:55;33.50;;;11.33;;
71503;SDS011;59323;50.874;7.028;2023-03-03T06:32:20;32.90;;;11.43;;
71503;SDS011;59323;50.874;7.028;2023-03-03T06:34:46;32.35;;;10.95;;
71503;SDS011;59323;50.874;7.028;2023-03-03T06:37:11;33.33;;;11.97;;
71503;SDS011;59323;50.874;7.028;2023-03-03T06:39:36;33.77;;;11.27;;
71503;SDS011;59323;50.874;7.028;2023-03-03T06:42:02;36.47;;;13.10;;
71503;SDS011;59323;50.874;7.028;2023-03-03T06:44:27;34.83;;;12.97;;
71503;SDS011;59323;50.874;7.028;2023-03-03T06:46:52;38.87;;;12.93;;
71503;SDS011;59323;50.874;7.028;2023-03-03T06:49:21;36.80;;;12.57;;
71503;SDS011;59323;50.874;7.028;2023-03-03T06:51:46;36.00;;;12.15;;
71503;SDS011;59323;50.874;7.028;2023-03-03T06:54:19;39.77;;;12.37;;
71503;SDS011;59323;50.874;7.028;2023-03-03T06:56:48;55.70;;;16.60;;
71503;SDS011;59323;50.874;7.028;2023-03-03T06:59:18;52.55;;;16.20;;
71503;SDS011;59323;50.874;7.028;2023-03-03T07:01:46;44.58;;;15.15;;
71503;SDS011;59323;50.874;7.028;2023-03-03T07:04:32;38.37;;;12.57;;
71503;SDS011;59323;50.874;7.028;2023-03-03T07:09:56;36.47;;;11.77;;
71503;SDS011;59323;50.874;7.028;2023-03-03T07:12:22;46.07;;;13.63;;
71503;SDS011;59323;50.874;7.028;2023-03-03T07:14:51;44.05;;;13.80;;
71503;SDS011;59323;50.874;7.028;2023-03-03T07:17:23;44.00;;;13.75;;
71503;SDS011;59323;50.874;7.028;2023-03-03T07:19:49;34.63;;;11.73;;
71503;SDS011;59323;50.874;7.028;2023-03-03T07:22:23;35.27;;;12.73;;
71503;SDS011;59323;50.874;7.028;2023-03-03T07:24:51;37.28;;;12.20;;
71503;SDS011;59323;50.874;7.028;2023-03-03T07:29:47;37.87;;;11.73;;
71503;SDS011;59323;50.874;7.028;2023-03-03T07:37:53;39.30;;;12.27;;
71503;SDS011;59323;50.874;7.028;2023-03-03T07:43:37;39.85;;;11.85;;
71503;SDS011;59323;50.874;7.028;2023-03-03T07:46:22;32.35;;;11.45;;
71503;SDS011;59323;50.874;7.028;2023-03-03T07:48:54;39.22;;;14.07;;
71503;SDS011;59323;50.874;7.028;2023-03-03T07:51:22;35.80;;;12.73;;
71503;SDS011;59323;50.874;7.028;2023-03-03T07:53:53;34.30;;;13.03;;
71503;SDS011;59323;50.874;7.028;2023-03-03T07:56:28;39.97;;;13.95;;
71503;SDS011;59323;50.874;7.028;2023-03-03T07:58:58;42.90;;;14.27;;
71503;SDS011;59323;50.874;7.028;2023-03-03T08:04:11;36.43;;;12.73;;
71503;SDS011;59323;50.874;7.028;2023-03-03T08:12:28;33.03;;;12.20;;
71503;SDS011;59323;50.874;7.028;2023-03-03T08:14:45;37.38;;;12.75;;
71503;SDS011;59323;50.874;7.028;2023-03-03T08:17:13;34.70;;;11.97;;
71503;SDS011;59323;50.874;7.028;2023-03-03T08:19:44;32.67;;;11.25;;
71503;SDS011;59323;50.874;7.028;2023-03-03T08:22:14;33.30;;;10.90;;
71503;SDS011;59323;50.874;7.028;2023-03-03T08:24:48;35.67;;;11.93;;
71503;SDS011;59323;50.874;7.028;2023-03-03T08:27:13;31.83;;;10.93;;
71503;SDS011;59323;50.874;7.028;2023-03-03T08:29:39;30.37;;;10.30;;
71503;SDS011;59323;50.874;7.028;2023-03-03T08:32:04;32.65;;;10.10;;
71503;SDS011;59323;50.874;7.028;2023-03-03T08:34:29;30.87;;;10.50;;
71503;SDS011;59323;50.874;7.028;2023-03-03T08:36:55;32.77;;;11.53;;
71503;SDS011;59323;50.874;7.028;2023-03-03T08:39:22;32.55;;;11.05;;
71503;SDS011;59323;50.874;7.028;2023-03-03T08:41:48;30.20;;;11.03;;
71503;SDS011;59323;50.874;7.028;2023-03-03T08:44:13;31.48;;;10.40;;
71503;SDS011;59323;50.874;7.028;2023-03-03T08:46:38;31.70;;;10.63;;
71503;SDS011;59323;50.874;7.028;2023-03-03T08:49:04;28.27;;;10.20;;
71503;SDS011;59323;50.874;7.028;2023-03-03T08:51:29;29.00;;;10.40;;
71503;SDS011;59323;50.874;7.028;2023-03-03T08:53:55;30.77;;;11.48;;
71503;SDS011;59323;50.874;7.028;2023-03-03T08:56:20;32.03;;;10.87;;
71503;SDS011;59323;50.874;7.028;2023-03-03T08:58:49;33.50;;;11.77;;
71503;SDS011;59323;50.874;7.028;2023-03-03T09:01:14;32.97;;;11.77;;
71503;SDS011;59323;50.874;7.028;2023-03-03T09:03:43;30.83;;;10.18;;
71503;SDS011;59323;50.874;7.028;2023-03-03T09:06:10;33.72;;;10.95;;
71503;SDS011;59323;50.874;7.028;2023-03-03T09:08:36;32.23;;;11.57;;
71503;SDS011;59323;50.874;7.028;2023-03-03T09:11:02;34.63;;;10.63;;
71503;SDS011;59323;50.874;7.028;2023-03-03T09:13:28;30.15;;;10.07;;
71503;SDS011;59323;50.874;7.028;2023-03-03T09:15:54;28.27;;;10.07;;
71503;SDS011;59323;50.874;7.028;2023-03-03T09:18:34;31.07;;;10.63;;
71503;SDS011;59323;50.874;7.028;2023-03-03T09:21:01;27.67;;;10.05;;
71503;SDS011;59323;50.874;7.028;2023-03-03T09:23:28;33.47;;;11.17;;
71503;SDS011;59323;50.874;7.028;2023-03-03T09:25:55;32.78;;;11.32;;
71503;SDS011;59323;50.874;7.028;2023-03-03T09:28:24;32.00;;;10.75;;
71503;SDS011;59323;50.874;7.028;2023-03-03T09:30:51;31.35;;;11.20;;
71503;SDS011;59323;50.874;7.028;2023-03-03T09:38:27;27.35;;;9.68;;
71503;SDS011;59323;50.874;7.028;2023-03-03T09:43:48;33.50;;;11.88;;
71503;SDS011;59323;50.874;7.028;2023-03-03T09:49:10;33.00;;;11.20;;
71503;SDS011;59323;50.874;7.028;2023-03-03T09:52:26;33.22;;;11.38;;
71503;SDS011;59323;50.874;7.028;2023-03-03T10:51:01;24.47;;;8.97;;
71503;SDS011;59323;50.874;7.028;2023-03-03T10:56:01;25.02;;;8.63;;
71503;SDS011;59323;50.874;7.028;2023-03-03T11:20:59;27.52;;;8.68;;
71503;SDS011;59323;50.874;7.028;2023-03-03T11:23:28;22.80;;;8.40;;
71503;SDS011;59323;50.874;7.028;2023-03-03T11:29:00;28.35;;;8.52;;
71503;SDS011;59323;50.874;7.028;2023-03-03T11:31:37;25.17;;;8.53;;
71503;SDS011;59323;50.874;7.028;2023-03-03T11:36:52;29.33;;;9.27;;
71503;SDS011;59323;50.874;7.028;2023-03-03T11:39:24;26.42;;;8.90;;
71503;SDS011;59323;50.874;7.028;2023-03-03T11:44:39;27.93;;;9.90;;
71503;SDS011;59323;50.874;7.028;2023-03-03T11:50:03;26.98;;;9.60;;
71503;SDS011;59323;50.874;7.028;2023-03-03T11:52:46;26.63;;;9.98;;
71503;SDS011;59323;50.874;7.028;2023-03-03T11:55:29;26.00;;;9.45;;
71503;SDS011;59323;50.874;7.028;2023-03-03T12:00:40;27.17;;;9.18;;
71503;SDS011;59323;50.874;7.028;2023-03-03T12:09:12;32.15;;;9.82;;
71503;SDS011;59323;50.874;7.028;2023-03-03T12:11:57;28.27;;;10.73;;
71503;SDS011;59323;50.874;7.028;2023-03-03T12:17:35;35.88;;;13.40;;
71503;SDS011;59323;50.874;7.028;2023-03-03T12:26:05;35.00;;;11.83;;
71503;SDS011;59323;50.874;7.028;2023-03-03T12:28:41;35.35;;;13.80;;
71503;SDS011;59323;50.874;7.028;2023-03-03T12:31:36;36.10;;;13.45;;
71503;SDS011;59323;50.874;7.028;2023-03-03T12:34:24;37.80;;;13.88;;
71503;SDS011;59323;50.874;7.028;2023-03-03T12:40:13;39.47;;;14.47;;
71503;SDS011;59323;50.874;7.028;2023-03-03T12:50:51;39.42;;;14.55;;
71503;SDS011;59323;50.874;7.028;2023-03-03T12:56:40;32.83;;;12.82;;
71503;SDS011;59323;50.874;7.028;2023-03-03T12:59:17;37.28;;;13.88;;
71503;SDS011;59323;50.874;7.028;2023-03-03T13:01:57;40.70;;;15.35;;
71503;SDS011;59323;50.874;7.028;2023-03-03T13:04:30;37.65;;;14.20;;
71503;SDS011;59323;50.874;7.028;2023-03-03T13:09:59;45.65;;;17.48;;
71503;SDS011;59323;50.874;7.028;2023-03-03T13:15:23;45.85;;;17.05;;
71503;SDS011;59323;50.874;7.028;2023-03-03T13:17:55;44.15;;;15.88;;
71503;SDS011;59323;50.874;7.028;2023-03-03T13:20:47;40.50;;;14.87;;
71503;SDS011;59323;50.874;7.028;2023-03-03T13:28:56;43.20;;;14.80;;
71503;SDS011;59323;50.874;7.028;2023-03-03T13:31:32;41.50;;;14.43;;
71503;SDS011;59323;50.874;7.028;2023-03-03T13:34:01;46.27;;;16.33;;
71503;SDS011;59323;50.874;7.028;2023-03-03T13:36:33;43.90;;;17.17;;
71503;SDS011;59323;50.874;7.028;2023-03-03T13:39:19;42.35;;;15.00;;
71503;SDS011;59323;50.874;7.028;2023-03-03T13:41:55;40.28;;;15.40;;
71503;SDS011;59323;50.874;7.028;2023-03-03T13:44:45;41.83;;;13.93;;
71503;SDS011;59323;50.874;7.028;2023-03-03T13:52:28;33.65;;;12.05;;
71503;SDS011;59323;50.874;7.028;2023-03-03T13:57:53;34.93;;;12.43;;
71503;SDS011;59323;50.874;7.028;2023-03-03T14:00:43;33.75;;;12.35;;
71503;SDS011;59323;50.874;7.028;2023-03-03T14:06:27;37.63;;;12.60;;
71503;SDS011;59323;50.874;7.028;2023-03-03T14:09:11;31.33;;;11.90;;
71503;SDS011;59323;50.874;7.028;2023-03-03T14:12:12;33.73;;;11.47;;
71503;SDS011;59323;50.874;7.028;2023-03-03T14:14:49;33.33;;;11.27;;
71503;SDS011;59323;50.874;7.028;2023-03-03T14:17:30;38.88;;;12.02;;
71503;SDS011;59323;50.874;7.028;2023-03-03T14:22:43;39.45;;;11.60;;
71503;SDS011;59323;50.874;7.028;2023-03-03T14:25:15;39.97;;;12.97;;
71503;SDS011;59323;50.874;7.028;2023-03-03T14:27:53;37.78;;;13.00;;
71503;SDS011;59323;50.874;7.028;2023-03-03T14:33:17;45.25;;;14.40;;
71503;SDS011;59323;50.874;7.028;2023-03-03T14:38:23;42.08;;;13.30;;
71503;SDS011;59323;50.874;7.028;2023-03-03T14:43:38;44.72;;;14.35;;
71503;SDS011;59323;50.874;7.028;2023-03-03T14:49:01;40.80;;;13.47;;
71503;SDS011;59323;50.874;7.028;2023-03-03T14:51:41;41.97;;;12.80;;
71503;SDS011;59323;50.874;7.028;2023-03-03T14:54:13;41.13;;;13.65;;
71503;SDS011;59323;50.874;7.028;2023-03-03T14:56:58;38.78;;;13.38;;
71503;SDS011;59323;50.874;7.028;2023-03-03T14:59:39;42.70;;;13.98;;
71503;SDS011;59323;50.874;7.028;2023-03-03T15:04:52;41.03;;;13.07;;
71503;SDS011;59323;50.874;7.028;2023-03-03T15:07:37;51.40;;;14.52;;
71503;SDS011;59323;50.874;7.028;2023-03-03T15:10:04;44.70;;;13.98;;
71503;SDS011;59323;50.874;7.028;2023-03-03T15:15:18;42.40;;;12.97;;
71503;SDS011;59323;50.874;7.028;2023-03-03T15:25:57;45.28;;;13.60;;
71503;SDS011;59323;50.874;7.028;2023-03-03T15:31:15;49.07;;;14.80;;
71503;SDS011;59323;50.874;7.028;2023-03-03T15:36:47;42.15;;;13.13;;
71503;SDS011;59323;50.874;7.028;2023-03-03T15:42:10;49.53;;;14.27;;
71503;SDS011;59323;50.874;7.028;2023-03-03T15:44:45;50.90;;;14.70;;
71503;SDS011;59323;50.874;7.028;2023-03-03T15:47:21;51.90;;;14.48;;
71503;SDS011;59323;50.874;7.028;2023-03-03T16:01:11;46.80;;;14.10;;
71503;SDS011;59323;50.874;7.028;2023-03-03T16:03:41;51.10;;;14.25;;
71503;SDS011;59323;50.874;7.028;2023-03-03T16:06:15;52.03;;;14.07;;
71503;SDS011;59323;50.874;7.028;2023-03-03T16:09:02;45.78;;;13.77;;
71503;SDS011;59323;50.874;7.028;2023-03-03T16:17:37;43.00;;;13.23;;
71503;SDS011;59323;50.874;7.028;2023-03-03T16:25:35;42.60;;;12.47;;
71503;SDS011;59323;50.874;7.028;2023-03-03T16:30:51;38.22;;;12.82;;
71503;SDS011;59323;50.874;7.028;2023-03-03T16:33:59;43.03;;;12.48;;
71503;SDS011;59323;50.874;7.028;2023-03-03T16:36:50;40.58;;;11.90;;
71503;SDS011;59323;50.874;7.028;2023-03-03T16:51:01;38.22;;;11.45;;
71503;SDS011;59323;50.874;7.028;2023-03-03T16:54:00;40.60;;;11.37;;
71503;SDS011;59323;50.874;7.028;2023-03-03T16:56:34;38.97;;;10.95;;
71503;SDS011;59323;50.874;7.028;2023-03-03T16:59:31;40.05;;;11.68;;
71503;SDS011;59323;50.874;7.028;2023-03-03T17:02:25;38.60;;;11.45;;
71503;SDS011;59323;50.874;7.028;2023-03-03T17:07:42;39.83;;;10.80;;
71503;SDS011;59323;50.874;7.028;2023-03-03T17:24:05;41.33;;;11.40;;
71503;SDS011;59323;50.874;7.028;2023-03-03T17:26:44;38.90;;;11.43;;
71503;SDS011;59323;50.874;7.028;2023-03-03T17:40:02;34.83;;;11.45;;
71503;SDS011;59323;50.874;7.028;2023-03-03T17:45:16;39.93;;;12.67;;
71503;SDS011;59323;50.874;7.028;2023-03-03T18:21:43;45.47;;;14.97;;
71503;SDS011;59323;50.874;7.028;2023-03-03T18:32:39;47.60;;;15.75;;
71503;SDS011;59323;50.874;7.028;2023-03-03T18:35:38;47.33;;;16.10;;
71503;SDS011;59323;50.874;7.028;2023-03-03T18:40:47;51.55;;;17.38;;
71503;SDS011;59323;50.874;7.028;2023-03-03T18:59:40;58.65;;;18.23;;
71503;SDS011;59323;50.874;7.028;2023-03-03T19:07:20;54.72;;;18.33;;
71503;SDS011;59323;50.874;7.028;2023-03-03T19:09:57;58.53;;;19.50;;
71503;SDS011;59323;50.874;7.028;2023-03-03T19:17:56;56.42;;;18.92;;
71503;SDS011;59323;50.874;7.028;2023-03-03T19:20:23;63.45;;;21.75;;
71503;SDS011;59323;50.874;7.028;2023-03-03T19:22:51;62.63;;;22.17;;
71503;SDS011;59323;50.874;7.028;2023-03-03T19:25:26;70.35;;;23.45;;
71503;SDS011;59323;50.874;7.028;2023-03-03T19:39:34;68.43;;;22.13;;
71503;SDS011;59323;50.874;7.028;2023-03-03T19:47:40;82.35;;;25.17;;
71503;SDS011;59323;50.874;7.028;2023-03-03T19:50:15;74.93;;;23.65;;
71503;SDS011;59323;50.874;7.028;2023-03-03T20:04:16;88.88;;;26.42;;
71503;SDS011;59323;50.874;7.028;2023-03-03T20:15:18;83.87;;;24.77;;
71503;SDS011;59323;50.874;7.028;2023-03-03T20:30:44;96.45;;;27.80;;
71503;SDS011;59323;50.874;7.028;2023-03-03T20:36:30;91.25;;;27.85;;
71503;SDS011;59323;50.874;7.028;2023-03-03T20:45:09;88.28;;;26.65;;
71503;SDS011;59323;50.874;7.028;2023-03-03T20:50:22;98.47;;;27.50;;
71503;SDS011;59323;50.874;7.028;2023-03-03T20:53:05;94.57;;;26.45;;
71503;SDS011;59323;50.874;7.028;2023-03-03T20:56:07;89.28;;;25.77;;
71503;SDS011;59323;50.874;7.028;2023-03-03T20:58:41;97.88;;;27.63;;
71503;SDS011;59323;50.874;7.028;2023-03-03T21:01:12;91.80;;;26.67;;
71503;SDS011;59323;50.874;7.028;2023-03-03T21:03:43;93.75;;;26.10;;
71503;SDS011;59323;50.874;7.028;2023-03-03T21:06:10;97.05;;;28.20;;
71503;SDS011;59323;50.874;7.028;2023-03-03T21:08:47;92.22;;;26.73;;
71503;SDS011;59323;50.874;7.028;2023-03-03T21:11:23;98.00;;;27.92;;
71503;SDS011;59323;50.874;7.028;2023-03-03T21:14:25;99.33;;;28.00;;
71503;SDS011;59323;50.874;7.028;2023-03-03T21:16:56;94.85;;;28.30;;
71503;SDS011;59323;50.874;7.028;2023-03-03T21:19:30;97.88;;;28.48;;
71503;SDS011;59323;50.874;7.028;2023-03-03T21:21:58;89.53;;;26.80;;
71503;SDS011;59323;50.874;7.028;2023-03-03T21:24:44;87.07;;;27.80;;
71503;SDS011;59323;50.874;7.028;2023-03-03T21:27:29;92.87;;;27.67;;
71503;SDS011;59323;50.874;7.028;2023-03-03T21:30:09;105.47;;;28.88;;
71503;SDS011;59323;50.874;7.028;2023-03-03T21:32:43;98.57;;;27.50;;
71503;SDS011;59323;50.874;7.028;2023-03-03T21:35:16;90.03;;;26.88;;
71503;SDS011;59323;50.874;7.028;2023-03-03T21:37:46;101.32;;;29.92;;
71503;SDS011;59323;50.874;7.028;2023-03-03T21:40:24;109.23;;;32.00;;
71503;SDS011;59323;50.874;7.028;2023-03-03T21:42:52;104.53;;;28.35;;
71503;SDS011;59323;50.874;7.028;2023-03-03T21:45:18;98.40;;;29.33;;
71503;SDS011;59323;50.874;7.028;2023-03-03T21:47:44;107.10;;;30.53;;
71503;SDS011;59323;50.874;7.028;2023-03-03T21:50:11;105.88;;;28.48;;
71503;SDS011;59323;50.874;7.028;2023-03-03T21:52:36;94.53;;;28.42;;